Time;durP1;ratioP1;P1;durP2;ratioP2;P2;SDS_P1;SDS_P2;PMS_P1;PMS_P2;Temp;Humidity;BMP_temperature;BMP_pressure;BME280_temperature;BME280_humidity;BME280_pressure;Samples;Min_cycle;Max_cycle;Signal;HPM_P1;HPM_P2
2022/11/13 00:00:51;;;;;;;36.92;23.35;;;8.50;99.90;;;;;;5114094;28;20042;-75
2022/11/13 00:03:16;;;;;;;40.08;24.80;;;8.40;99.90;;;;;;5112055;28;20356;-75
2022/11/13 00:05:42;;;;;;;38.78;24.65;;;8.40;99.90;;;;;;5114016;28;20038;-75
2022/11/13 00:08:08;;;;;;;40.53;26.20;;;8.30;99.90;;;;;;5113483;28;20107;-74
2022/11/13 00:10:33;;;;;;;34.45;23.73;;;8.30;99.90;;;;;;5113849;28;20072;-75
2022/11/13 00:12:59;;;;;;;36.95;23.95;;;8.30;99.90;;;;;;5114334;28;20019;-74
2022/11/13 00:15:25;;;;;;;38.03;23.60;;;8.20;99.90;;;;;;5112588;28;20027;-73
2022/11/13 00:17:50;;;;;;;40.90;25.23;;;8.10;99.90;;;;;;5113818;28;20019;-73
2022/11/13 00:20:17;;;;;;;39.92;24.08;;;8.10;99.90;;;;;;5113526;28;20034;-74
2022/11/13 00:22:43;;;;;;;39.28;24.10;;;8.10;99.90;;;;;;5113586;28;20103;-74
2022/11/13 00:25:09;;;;;;;39.88;23.55;;;8.10;99.90;;;;;;5113508;28;20073;-74
2022/11/13 00:27:35;;;;;;;34.17;24.08;;;8.00;99.90;;;;;;5113751;28;20023;-75
2022/11/13 00:30:00;;;;;;;37.28;24.38;;;8.00;99.90;;;;;;5113608;28;20123;-75
2022/11/13 00:32:26;;;;;;;33.30;22.65;;;8.00;99.90;;;;;;5112980;28;20035;-74
2022/11/13 00:34:52;;;;;;;34.45;22.63;;;7.90;99.90;;;;;;5113687;28;20083;-73
2022/11/13 00:37:18;;;;;;;32.85;22.35;;;7.90;99.90;;;;;;5113083;28;20023;-75
2022/11/13 00:39:43;;;;;;;33.45;21.73;;;7.90;99.90;;;;;;5113827;28;20409;-74
2022/11/13 00:42:09;;;;;;;36.53;22.70;;;7.90;99.90;;;;;;5112926;28;20016;-73
2022/11/13 00:44:34;;;;;;;35.33;22.92;;;7.80;99.90;;;;;;5113444;28;20035;-73
2022/11/13 00:47:00;;;;;;;32.85;22.33;;;7.70;99.90;;;;;;5113680;28;20028;-75
2022/11/13 00:49:26;;;;;;;35.08;22.05;;;7.70;99.90;;;;;;5113068;28;20038;-75
2022/11/13 00:51:51;;;;;;;36.20;22.02;;;7.70;99.90;;;;;;5113211;28;20031;-73
2022/11/13 00:54:17;;;;;;;36.17;21.88;;;7.60;99.90;;;;;;5112464;28;20125;-74
2022/11/13 00:56:43;;;;;;;37.10;21.83;;;7.60;99.90;;;;;;5113172;28;20094;-74
2022/11/13 00:59:08;;;;;;;33.10;21.05;;;7.50;99.90;;;;;;5113051;28;20028;-74
2022/11/13 01:01:34;;;;;;;39.22;21.10;;;7.50;99.90;;;;;;5112976;28;20028;-74
2022/11/13 01:04:00;;;;;;;27.33;18.27;;;7.40;99.90;;;;;;5113167;28;20023;-74
2022/11/13 01:06:26;;;;;;;35.28;19.20;;;7.50;99.90;;;;;;5112837;28;20023;-74
2022/11/13 01:08:58;;;;;;;31.13;17.75;;;7.40;99.90;;;;;;5112961;28;20028;-74
2022/11/13 01:11:26;;;;;;;28.80;17.83;;;7.40;99.90;;;;;;5112543;28;20102;-74
2022/11/13 01:13:52;;;;;;;27.45;16.60;;;7.40;99.90;;;;;;5112580;28;20019;-75
2022/11/13 01:16:21;;;;;;;25.80;16.70;;;7.40;99.90;;;;;;5112496;28;20030;-75
2022/11/13 01:18:46;;;;;;;26.00;16.63;;;7.30;99.90;;;;;;5112780;28;20034;-74
2022/11/13 01:21:18;;;;;;;25.48;15.75;;;7.30;99.90;;;;;;5112666;28;20114;-74
2022/11/13 01:23:44;;;;;;;29.27;17.35;;;7.30;99.90;;;;;;5112834;28;20032;-75
2022/11/13 01:26:13;;;;;;;28.40;17.00;;;7.20;99.90;;;;;;5112490;28;20072;-74
2022/11/13 01:28:42;;;;;;;27.33;15.70;;;7.10;99.90;;;;;;5112918;28;20063;-75
2022/11/13 01:31:10;;;;;;;23.23;16.27;;;7.10;99.90;;;;;;5113013;28;20087;-74
2022/11/13 01:33:37;;;;;;;24.20;15.02;;;7.10;99.90;;;;;;5109988;28;20035;-74
2022/11/13 01:36:06;;;;;;;25.95;15.60;;;7.10;99.90;;;;;;5112528;28;20059;-74
2022/11/13 01:38:32;;;;;;;27.10;16.92;;;7.00;99.90;;;;;;5112500;28;20110;-74
2022/11/13 01:40:58;;;;;;;23.23;15.80;;;7.00;99.90;;;;;;5112536;28;20124;-74
2022/11/13 01:43:27;;;;;;;27.20;16.85;;;6.90;99.90;;;;;;5112195;28;20020;-74
2022/11/13 01:45:58;;;;;;;26.90;15.73;;;6.90;99.90;;;;;;5112529;28;20023;-73
2022/11/13 01:48:41;;;;;;;28.15;15.65;;;6.80;99.90;;;;;;5112271;28;20110;-73
2022/11/13 01:51:35;;;;;;;28.67;16.23;;;6.70;99.90;;;;;;5112622;28;20438;-73
2022/11/13 01:54:05;;;;;;;37.90;20.13;;;6.70;99.90;;;;;;5112333;28;20050;-74
2022/11/13 01:56:31;;;;;;;34.85;18.05;;;6.60;99.90;;;;;;5112031;28;20464;-75
2022/11/13 01:59:04;;;;;;;40.53;18.25;;;6.60;99.90;;;;;;5112632;28;20129;-74
2022/11/13 02:01:30;;;;;;;43.20;17.33;;;6.50;99.90;;;;;;5110915;28;20411;-73
2022/11/13 02:03:56;;;;;;;45.95;19.00;;;6.40;99.90;;;;;;5112213;28;20028;-74
2022/11/13 02:06:21;;;;;;;47.22;17.50;;;6.40;99.90;;;;;;5111948;28;20023;-74
2022/11/13 02:08:49;;;;;;;42.97;18.05;;;6.30;99.90;;;;;;5112235;28;20367;-74
2022/11/13 02:11:15;;;;;;;37.17;18.60;;;6.20;99.90;;;;;;5112619;28;20035;-75
2022/11/13 02:13:42;;;;;;;25.13;19.38;;;6.10;99.90;;;;;;5112178;28;20027;-74
2022/11/13 02:16:10;;;;;;;36.30;19.35;;;6.20;99.90;;;;;;5112578;28;20034;-74
2022/11/13 02:18:38;;;;;;;64.68;20.73;;;6.30;99.90;;;;;;5112138;28;20031;-74
2022/11/13 02:21:16;;;;;;;26.98;21.92;;;6.20;99.90;;;;;;5112154;28;20024;-74
2022/11/13 02:23:53;;;;;;;47.97;23.20;;;6.20;99.90;;;;;;5112411;28;20464;-74
2022/11/13 02:26:21;;;;;;;62.70;25.70;;;6.20;99.90;;;;;;5111611;28;20023;-74
2022/11/13 02:28:47;;;;;;;35.35;25.50;;;6.20;99.90;;;;;;5111747;28;20027;-74
2022/11/13 02:31:13;;;;;;;32.53;26.17;;;6.20;99.90;;;;;;5112145;28;20035;-74
2022/11/13 02:33:39;;;;;;;76.78;28.77;;;6.20;99.90;;;;;;5111336;28;20032;-74
2022/11/13 02:36:08;;;;;;;47.58;28.63;;;6.20;99.90;;;;;;5112242;28;20028;-74
2022/11/13 02:38:36;;;;;;;52.15;27.85;;;6.30;99.90;;;;;;5112243;28;20051;-74
2022/11/13 02:41:01;;;;;;;52.08;29.40;;;6.30;99.90;;;;;;5115797;28;20035;-74
2022/11/13 02:43:27;;;;;;;64.72;27.92;;;6.30;99.90;;;;;;5115497;28;20392;-73
2022/11/13 02:45:53;;;;;;;73.15;28.50;;;6.30;99.90;;;;;;5115381;28;20391;-73
2022/11/13 02:48:18;;;;;;;94.70;29.98;;;6.20;99.90;;;;;;5115217;28;20024;-73
2022/11/13 02:50:45;;;;;;;76.10;29.65;;;6.20;99.90;;;;;;5115801;28;20479;-74
2022/11/13 02:53:10;;;;;;;77.55;28.02;;;6.20;99.90;;;;;;5115270;28;20035;-74
2022/11/13 02:55:36;;;;;;;46.40;30.50;;;6.20;99.90;;;;;;5115035;28;20388;-74
2022/11/13 02:58:02;;;;;;;53.53;30.52;;;6.10;99.90;;;;;;5115488;28;20031;-74
2022/11/13 03:00:28;;;;;;;66.22;31.70;;;6.10;99.90;;;;;;5114620;28;20079;-74
2022/11/13 03:02:54;;;;;;;72.80;31.50;;;6.20;99.90;;;;;;5115512;28;20536;-74
2022/11/13 03:05:20;;;;;;;64.32;32.08;;;6.20;99.90;;;;;;5114896;28;20027;-73
2022/11/13 03:07:46;;;;;;;76.57;34.10;;;6.20;99.90;;;;;;5116587;28;20028;-75
2022/11/13 03:10:12;;;;;;;98.93;33.60;;;6.20;99.90;;;;;;5118188;28;20119;-75
2022/11/13 03:12:39;;;;;;;90.40;35.13;;;6.20;99.90;;;;;;5117263;28;20378;-75
2022/11/13 03:15:06;;;;;;;98.13;34.47;;;6.20;99.90;;;;;;5117815;28;20027;-75
2022/11/13 03:17:32;;;;;;;100.80;37.00;;;6.20;99.90;;;;;;5117783;28;20027;-75
2022/11/13 03:19:58;;;;;;;107.80;37.30;;;6.20;99.90;;;;;;5118058;28;20371;-75
2022/11/13 03:22:24;;;;;;;104.65;39.40;;;6.20;99.90;;;;;;5115185;28;20115;-73
2022/11/13 03:24:50;;;;;;;108.88;39.50;;;6.30;99.90;;;;;;5115268;28;20031;-75
2022/11/13 03:27:15;;;;;;;88.88;37.92;;;6.30;99.90;;;;;;5115260;28;20038;-75
2022/11/13 03:29:41;;;;;;;95.80;39.67;;;6.30;99.90;;;;;;5114540;28;20028;-75
2022/11/13 03:32:07;;;;;;;117.10;38.47;;;6.30;99.90;;;;;;5115089;28;20047;-75
2022/11/13 03:34:32;;;;;;;90.00;41.30;;;6.30;99.90;;;;;;5114050;28;20126;-74
2022/11/13 03:36:58;;;;;;;130.68;40.38;;;6.30;99.90;;;;;;5114589;28;20377;-74
2022/11/13 03:39:24;;;;;;;100.43;39.85;;;6.30;99.90;;;;;;5114403;28;20106;-73
2022/11/13 03:41:49;;;;;;;75.68;40.35;;;6.30;99.90;;;;;;5114619;28;20484;-74
2022/11/13 03:44:15;;;;;;;89.57;43.22;;;6.30;99.90;;;;;;5114584;28;20031;-73
2022/11/13 03:46:40;;;;;;;95.82;40.45;;;6.40;99.90;;;;;;5114095;28;20027;-74
2022/11/13 03:49:06;;;;;;;111.70;41.92;;;6.40;99.90;;;;;;5114485;28;20031;-74
2022/11/13 03:51:32;;;;;;;86.53;42.65;;;6.40;99.90;;;;;;5112639;28;20156;-74
2022/11/13 03:53:59;;;;;;;94.97;41.72;;;6.40;99.90;;;;;;5114598;28;20027;-75
2022/11/13 03:56:24;;;;;;;79.55;41.83;;;6.50;99.90;;;;;;5113916;28;20107;-74
2022/11/13 03:58:50;;;;;;;107.60;41.53;;;6.50;99.90;;;;;;5114653;28;20055;-75
2022/11/13 04:01:16;;;;;;;113.32;40.97;;;6.50;99.90;;;;;;5114306;28;20036;-74
2022/11/13 04:03:42;;;;;;;88.88;41.38;;;6.60;99.90;;;;;;5113268;28;20023;-74
2022/11/13 04:06:08;;;;;;;98.60;41.55;;;6.60;99.90;;;;;;5114069;28;20027;-74
2022/11/13 04:08:34;;;;;;;96.03;40.47;;;6.60;99.90;;;;;;5113527;28;20035;-74
2022/11/13 04:11:07;;;;;;;113.03;40.28;;;6.60;99.90;;;;;;5113995;28;20042;-74
2022/11/13 04:13:33;;;;;;;109.40;41.47;;;6.60;99.90;;;;;;5113624;28;20108;-74
2022/11/13 04:15:59;;;;;;;87.90;40.70;;;6.60;99.90;;;;;;5114113;28;20113;-74
2022/11/13 04:18:24;;;;;;;106.88;42.17;;;6.70;99.90;;;;;;5112372;28;20027;-74
2022/11/13 04:20:50;;;;;;;68.60;42.25;;;6.70;99.90;;;;;;5113864;28;20405;-74
2022/11/13 04:23:16;;;;;;;81.15;40.92;;;6.70;99.90;;;;;;5114108;28;20043;-75
2022/11/13 04:25:43;;;;;;;83.30;39.17;;;6.80;99.90;;;;;;5113284;28;20026;-75
2022/11/13 04:28:09;;;;;;;68.38;40.72;;;6.80;99.90;;;;;;5113597;28;20034;-74
2022/11/13 04:30:35;;;;;;;95.43;38.75;;;6.80;99.90;;;;;;5113543;28;20035;-74
2022/11/13 04:33:01;;;;;;;91.55;39.40;;;6.80;99.90;;;;;;5113684;28;20028;-74
2022/11/13 04:35:27;;;;;;;92.28;38.78;;;6.80;99.90;;;;;;5113204;28;20094;-73
2022/11/13 04:37:53;;;;;;;83.38;39.03;;;6.80;99.90;;;;;;5113890;28;20543;-74
2022/11/13 04:40:18;;;;;;;101.03;40.22;;;6.80;99.90;;;;;;5112208;28;20023;-73
2022/11/13 04:42:50;;;;;;;83.97;39.97;;;6.80;99.90;;;;;;5112955;28;20028;-74
2022/11/13 04:45:21;;;;;;;66.30;37.10;;;6.80;99.90;;;;;;5113516;28;20020;-73
2022/11/13 04:47:46;;;;;;;89.93;38.65;;;6.80;99.90;;;;;;5094629;28;20434;-75
2022/11/13 04:50:13;;;;;;;73.55;40.47;;;6.90;99.90;;;;;;5113016;28;20031;-74
2022/11/13 04:52:39;;;;;;;99.43;37.72;;;6.90;99.90;;;;;;5112953;28;20062;-74
2022/11/13 04:55:06;;;;;;;60.25;37.88;;;6.90;99.90;;;;;;5113035;28;20055;-74
2022/11/13 04:57:32;;;;;;;67.15;37.28;;;7.00;99.90;;;;;;5112744;28;20034;-73
2022/11/13 04:59:58;;;;;;;98.85;36.08;;;7.00;99.90;;;;;;5112934;28;20099;-74
2022/11/13 05:02:24;;;;;;;65.72;35.20;;;7.00;99.90;;;;;;5112798;28;20031;-74
2022/11/13 05:04:49;;;;;;;115.97;36.33;;;7.00;99.90;;;;;;5112620;28;20019;-74
2022/11/13 05:07:15;;;;;;;68.60;36.97;;;6.90;99.90;;;;;;5113003;28;20019;-74
2022/11/13 05:09:41;;;;;;;75.75;36.42;;;7.00;99.90;;;;;;5112476;28;20027;-74
2022/11/13 05:12:07;;;;;;;107.82;37.05;;;7.00;99.90;;;;;;5111626;28;20147;-74
2022/11/13 05:14:37;;;;;;;119.55;35.13;;;7.00;99.90;;;;;;5112637;28;20081;-73
2022/11/13 05:17:04;;;;;;;102.32;35.90;;;6.90;99.90;;;;;;5112941;28;20024;-74
2022/11/13 05:19:31;;;;;;;94.20;37.80;;;7.00;99.90;;;;;;5112676;28;20032;-73
2022/11/13 05:21:57;;;;;;;98.35;35.97;;;6.90;99.90;;;;;;5112807;28;20399;-74
2022/11/13 05:24:23;;;;;;;126.20;35.60;;;6.90;99.90;;;;;;5113150;28;20023;-74
2022/11/13 05:26:49;;;;;;;156.23;37.28;;;6.80;99.90;;;;;;5112031;28;20410;-74
2022/11/13 05:29:15;;;;;;;178.40;35.70;;;6.80;99.90;;;;;;5112317;28;20023;-74
2022/11/13 05:31:41;;;;;;;144.02;34.45;;;6.70;99.90;;;;;;5112474;28;20031;-74
2022/11/13 05:34:06;;;;;;;130.35;32.85;;;6.60;99.90;;;;;;5112323;28;20119;-74
2022/11/13 05:36:32;;;;;;;133.73;32.45;;;6.60;99.90;;;;;;5112147;28;20031;-74
2022/11/13 05:38:58;;;;;;;123.43;33.60;;;6.50;99.90;;;;;;5111147;28;20150;-74
2022/11/13 05:41:25;;;;;;;160.40;33.58;;;6.50;99.90;;;;;;5112669;28;20468;-74
2022/11/13 05:43:51;;;;;;;140.50;32.50;;;6.50;99.90;;;;;;5111959;28;20362;-74
2022/11/13 05:46:22;;;;;;;130.15;33.15;;;6.40;99.90;;;;;;5112352;28;20032;-74
2022/11/13 05:48:52;;;;;;;100.70;34.53;;;6.30;99.90;;;;;;5110664;28;20111;-74
2022/11/13 05:51:21;;;;;;;142.23;32.17;;;6.30;99.90;;;;;;5112372;28;20042;-75
2022/11/13 05:53:47;;;;;;;164.73;35.28;;;6.20;99.90;;;;;;5112153;28;20328;-74
2022/11/13 05:56:16;;;;;;;138.85;33.63;;;6.20;99.90;;;;;;5112024;28;20020;-74
2022/11/13 05:58:43;;;;;;;147.27;35.42;;;6.20;99.90;;;;;;5111758;28;20027;-73
2022/11/13 06:01:11;;;;;;;107.65;35.25;;;6.20;99.90;;;;;;5112781;28;20378;-73
2022/11/13 06:03:37;;;;;;;96.28;36.85;;;6.20;99.90;;;;;;5112067;28;20054;-73
2022/11/13 06:06:03;;;;;;;170.30;35.83;;;6.20;99.90;;;;;;5112219;28;20206;-74
2022/11/13 06:08:29;;;;;;;124.95;37.00;;;6.20;99.90;;;;;;5112433;28;20028;-74
2022/11/13 06:11:02;;;;;;;114.13;33.50;;;6.10;99.90;;;;;;5111934;28;20514;-74
2022/11/13 06:13:29;;;;;;;151.10;34.28;;;6.10;99.90;;;;;;5112593;28;20368;-73
2022/11/13 06:15:59;;;;;;;138.32;35.00;;;6.10;99.90;;;;;;5115919;28;20062;-74
2022/11/13 06:18:24;;;;;;;150.63;35.58;;;6.00;99.90;;;;;;5116186;28;20218;-74
2022/11/13 06:20:50;;;;;;;112.93;34.40;;;6.00;99.90;;;;;;5115441;28;20491;-74
2022/11/13 06:23:16;;;;;;;111.45;34.00;;;6.00;99.90;;;;;;5116354;28;20019;-74
2022/11/13 06:25:42;;;;;;;72.53;33.53;;;5.90;99.90;;;;;;5115503;28;20460;-74
2022/11/13 06:28:07;;;;;;;96.88;34.70;;;5.90;99.90;;;;;;5115745;28;20358;-74
2022/11/13 06:30:33;;;;;;;78.50;35.53;;;6.00;99.90;;;;;;5116056;28;20030;-74
2022/11/13 06:32:59;;;;;;;101.35;35.40;;;6.00;99.90;;;;;;5115362;28;20023;-74
2022/11/13 06:35:25;;;;;;;99.40;33.90;;;6.00;99.90;;;;;;5115628;28;20499;-73
2022/11/13 06:37:50;;;;;;;86.22;33.22;;;6.00;99.90;;;;;;5115580;28;20027;-73
2022/11/13 06:40:16;;;;;;;102.18;35.58;;;6.00;99.90;;;;;;5114591;28;20031;-74
2022/11/13 06:42:41;;;;;;;73.68;34.58;;;6.00;99.90;;;;;;5115085;28;20028;-73
2022/11/13 06:45:09;;;;;;;90.95;34.40;;;6.00;99.90;;;;;;5115427;28;20096;-74
2022/11/13 06:47:34;;;;;;;89.40;35.03;;;6.00;99.90;;;;;;5115676;28;20130;-74
2022/11/13 06:50:00;;;;;;;111.93;35.22;;;6.00;99.90;;;;;;5115130;28;20118;-74
2022/11/13 06:52:25;;;;;;;104.82;34.05;;;6.00;99.90;;;;;;5115537;28;20032;-74
2022/11/13 06:54:51;;;;;;;102.07;33.15;;;6.00;99.90;;;;;;5114965;28;20070;-74
2022/11/13 06:57:17;;;;;;;87.93;34.13;;;6.00;99.90;;;;;;5115540;28;20020;-73
2022/11/13 06:59:42;;;;;;;101.05;33.60;;;5.90;99.90;;;;;;5114916;28;20511;-73
2022/11/13 07:02:10;;;;;;;112.63;34.97;;;6.00;99.90;;;;;;5115513;27;20023;-73
2022/11/13 07:04:36;;;;;;;88.10;36.97;;;6.00;99.90;;;;;;5115295;28;20035;-73
2022/11/13 07:07:03;;;;;;;105.38;34.05;;;6.00;99.90;;;;;;5114828;28;20024;-73
2022/11/13 07:09:29;;;;;;;131.77;33.60;;;6.00;99.90;;;;;;5115044;28;20036;-73
2022/11/13 07:11:54;;;;;;;74.38;33.33;;;6.00;99.90;;;;;;5114679;28;20043;-75
2022/11/13 07:14:20;;;;;;;91.38;34.03;;;6.00;99.90;;;;;;5114887;28;20460;-75
2022/11/13 07:16:46;;;;;;;83.63;33.15;;;6.10;99.90;;;;;;5114567;28;20031;-75
2022/11/13 07:19:12;;;;;;;100.65;34.55;;;6.10;99.90;;;;;;5115189;28;20115;-75
2022/11/13 07:21:37;;;;;;;88.15;35.78;;;6.00;99.90;;;;;;5115382;28;20077;-75
2022/11/13 07:24:03;;;;;;;109.25;34.22;;;6.10;99.90;;;;;;5114559;28;20028;-75
2022/11/13 07:26:29;;;;;;;67.45;34.83;;;6.00;99.90;;;;;;5115008;28;20483;-75
2022/11/13 07:28:55;;;;;;;75.55;32.75;;;6.10;99.90;;;;;;5113102;28;20035;-75
2022/11/13 07:31:20;;;;;;;82.63;35.03;;;6.10;99.90;;;;;;5114358;28;20103;-75
2022/11/13 07:33:48;;;;;;;72.43;33.08;;;6.10;99.90;;;;;;5114132;28;20040;-75
2022/11/13 07:36:14;;;;;;;85.20;33.58;;;6.20;99.90;;;;;;5114840;28;20049;-75
2022/11/13 07:38:40;;;;;;;68.45;34.30;;;6.30;99.90;;;;;;5114052;28;20027;-73
2022/11/13 07:41:06;;;;;;;84.45;33.47;;;6.30;99.90;;;;;;5114594;28;20027;-75
2022/11/13 07:43:31;;;;;;;70.03;33.17;;;6.30;99.90;;;;;;5114594;28;20024;-75
2022/11/13 07:45:58;;;;;;;83.93;34.15;;;6.30;99.90;;;;;;5114141;28;20024;-76
2022/11/13 07:48:24;;;;;;;63.35;34.53;;;6.30;99.90;;;;;;5114410;28;20027;-74
2022/11/13 07:50:50;;;;;;;97.43;32.88;;;6.30;99.90;;;;;;5113986;28;20382;-74
2022/11/13 07:53:16;;;;;;;63.03;34.13;;;6.40;99.90;;;;;;5114121;28;20471;-75
2022/11/13 07:55:42;;;;;;;69.22;36.72;;;6.40;99.90;;;;;;5113686;28;20515;-74
2022/11/13 07:58:08;;;;;;;69.22;31.38;;;6.50;99.90;;;;;;5114196;28;20024;-75
2022/11/13 08:00:34;;;;;;;69.13;31.23;;;6.50;99.90;;;;;;5113967;28;20037;-75
2022/11/13 08:03:10;;;;;;;61.92;30.85;;;6.50;99.90;;;;;;5113261;28;20056;-74
2022/11/13 08:05:36;;;;;;;63.65;31.77;;;6.50;99.90;;;;;;5112459;28;20490;-75
2022/11/13 08:08:02;;;;;;;89.82;30.40;;;6.50;99.90;;;;;;5113144;28;20095;-74
2022/11/13 08:10:28;;;;;;;62.25;30.00;;;6.50;99.90;;;;;;5113931;28;20061;-75
2022/11/13 08:13:01;;;;;;;71.03;31.15;;;6.50;99.90;;;;;;5113516;28;20023;-74
2022/11/13 08:15:28;;;;;;;77.38;31.67;;;6.50;99.90;;;;;;5114036;28;20407;-75
2022/11/13 08:17:55;;;;;;;79.63;30.23;;;6.40;99.90;;;;;;5113216;28;20027;-75
2022/11/13 08:20:21;;;;;;;55.85;32.28;;;6.40;99.90;;;;;;5113868;28;20032;-74
2022/11/13 08:22:47;;;;;;;97.15;32.53;;;6.50;99.90;;;;;;5113501;28;20041;-74
2022/11/13 08:25:13;;;;;;;92.57;32.00;;;6.50;99.90;;;;;;5113712;28;20024;-75
2022/11/13 08:27:38;;;;;;;96.35;31.83;;;6.50;99.90;;;;;;5113772;28;20027;-75
2022/11/13 08:30:05;;;;;;;71.93;33.55;;;6.60;99.90;;;;;;5113372;28;20437;-75
2022/11/13 08:32:30;;;;;;;71.32;33.72;;;6.60;99.90;;;;;;5113647;28;20034;-76
2022/11/13 08:34:56;;;;;;;55.63;31.10;;;6.60;99.90;;;;;;5113070;28;20484;-74
2022/11/13 08:37:21;;;;;;;61.85;32.88;;;6.60;99.90;;;;;;5112738;28;20031;-75
2022/11/13 08:39:47;;;;;;;53.42;32.20;;;6.70;99.90;;;;;;5112818;28;20031;-73
2022/11/13 08:42:13;;;;;;;65.97;32.38;;;6.80;99.90;;;;;;5113461;28;20023;-74
2022/11/13 08:44:38;;;;;;;67.22;34.35;;;6.80;99.90;;;;;;5113479;28;20016;-74
2022/11/13 08:47:04;;;;;;;66.13;33.75;;;6.90;99.90;;;;;;5113164;28;20118;-74
2022/11/13 08:49:30;;;;;;;66.47;32.03;;;6.90;99.90;;;;;;5113183;28;20379;-75
2022/11/13 08:51:55;;;;;;;67.07;31.02;;;6.90;99.90;;;;;;5112777;28;20027;-75
2022/11/13 08:54:21;;;;;;;57.22;31.02;;;6.90;99.90;;;;;;5113071;28;20444;-76
2022/11/13 08:56:47;;;;;;;61.75;31.58;;;6.90;99.90;;;;;;5112789;28;20047;-75
2022/11/13 08:59:14;;;;;;;58.50;32.20;;;6.90;99.90;;;;;;5113373;28;20081;-76
2022/11/13 09:01:39;;;;;;;60.35;33.00;;;7.00;99.90;;;;;;5112829;28;20455;-75
2022/11/13 09:04:05;;;;;;;59.72;33.72;;;7.00;99.90;;;;;;5112301;28;20059;-76
2022/11/13 09:06:32;;;;;;;53.85;33.60;;;7.00;99.90;;;;;;5112698;28;20030;-76
2022/11/13 09:08:58;;;;;;;108.20;31.13;;;7.00;99.90;;;;;;5112329;28;20031;-75
2022/11/13 09:11:26;;;;;;;62.92;32.60;;;7.10;99.90;;;;;;5112847;28;20099;-75
2022/11/13 09:13:53;;;;;;;54.67;31.65;;;7.10;99.90;;;;;;5112578;28;20137;-74
2022/11/13 09:16:19;;;;;;;76.82;33.25;;;7.10;99.90;;;;;;5111471;28;20030;-75
2022/11/13 09:18:47;;;;;;;56.17;32.38;;;7.10;99.90;;;;;;5112833;28;20031;-75
2022/11/13 09:21:13;;;;;;;53.20;31.35;;;7.20;99.90;;;;;;5112972;28;20031;-75
2022/11/13 09:23:38;;;;;;;59.42;32.50;;;7.20;99.90;;;;;;5112536;28;20023;-75
2022/11/13 09:26:04;;;;;;;48.50;30.83;;;7.20;99.90;;;;;;5112416;28;20372;-75
2022/11/13 09:28:30;;;;;;;53.05;31.38;;;7.30;99.90;;;;;;5112331;28;20490;-75
2022/11/13 09:30:56;;;;;;;52.15;32.10;;;7.30;99.90;;;;;;5112400;28;20189;-75
2022/11/13 09:33:21;;;;;;;56.63;33.10;;;7.30;99.90;;;;;;5112090;28;20020;-75
2022/11/13 09:35:47;;;;;;;53.58;31.77;;;7.40;99.90;;;;;;5112667;28;20048;-75
2022/11/13 09:38:14;;;;;;;52.10;31.08;;;7.40;99.90;;;;;;5111897;28;20430;-75
2022/11/13 09:40:52;;;;;;;51.83;31.55;;;7.40;99.90;;;;;;5112616;28;20375;-75
2022/11/13 09:43:43;;;;;;;49.35;31.95;;;7.50;99.90;;;;;;5112298;28;20091;-75
2022/11/13 09:46:52;;;;;;;55.50;33.58;;;7.50;99.90;;;;;;5112250;28;20032;-74
2022/11/13 09:49:44;;;;;;;53.05;33.60;;;7.60;99.90;;;;;;5053035;28;20037;-75
2022/11/13 09:52:34;;;;;;;52.00;32.95;;;7.60;99.90;;;;;;5052994;28;20040;-75
2022/11/13 09:55:03;;;;;;;54.63;32.50;;;7.70;99.90;;;;;;5053295;28;20083;-75
2022/11/13 09:57:45;;;;;;;55.60;34.22;;;7.70;99.90;;;;;;5053625;28;20036;-75
2022/11/13 10:00:18;;;;;;;55.55;34.42;;;7.70;99.90;;;;;;5052683;28;20040;-74
2022/11/13 10:02:46;;;;;;;50.55;31.88;;;7.80;99.90;;;;;;5053445;28;20531;-74
2022/11/13 10:05:41;;;;;;;57.55;35.67;;;7.80;99.90;;;;;;5052996;28;20287;-74
2022/11/13 10:08:13;;;;;;;56.08;35.20;;;7.90;99.90;;;;;;5053248;28;20116;-74
2022/11/13 10:10:48;;;;;;;52.97;34.33;;;7.90;99.90;;;;;;5053407;28;20029;-74
2022/11/13 10:13:20;;;;;;;52.85;34.58;;;7.90;99.90;;;;;;5052813;28;20033;-73
2022/11/13 10:15:50;;;;;;;56.95;34.33;;;8.00;99.90;;;;;;5053185;28;20156;-74
2022/11/13 10:18:22;;;;;;;52.17;33.58;;;8.00;99.90;;;;;;5053174;28;20137;-74
2022/11/13 10:20:54;;;;;;;53.63;33.58;;;8.10;99.90;;;;;;5107014;28;20084;-75
2022/11/13 10:23:33;;;;;;;49.97;32.55;;;8.20;99.90;;;;;;5116047;28;20026;-74
2022/11/13 10:26:18;;;;;;;56.55;33.42;;;8.20;99.90;;;;;;5115567;28;20028;-74
2022/11/13 10:28:44;;;;;;;51.35;33.55;;;8.20;99.90;;;;;;5115770;28;20027;-74
2022/11/13 10:31:13;;;;;;;46.47;31.48;;;8.30;99.90;;;;;;5115703;28;20103;-74
2022/11/13 10:33:38;;;;;;;48.35;33.03;;;8.30;99.90;;;;;;5115813;28;20016;-73
2022/11/13 10:36:20;;;;;;;49.60;32.22;;;8.40;99.90;;;;;;5115691;28;20106;-75
2022/11/13 10:39:02;;;;;;;46.60;31.73;;;8.50;99.90;;;;;;5115675;28;20034;-75
2022/11/13 10:41:27;;;;;;;46.20;30.45;;;8.50;99.90;;;;;;5115677;28;20057;-74
2022/11/13 10:44:00;;;;;;;44.53;29.80;;;8.60;99.90;;;;;;5115472;28;20023;-73
2022/11/13 10:46:29;;;;;;;47.25;30.58;;;8.60;99.90;;;;;;5114669;28;20040;-74
2022/11/13 10:48:56;;;;;;;44.03;28.83;;;8.70;99.90;;;;;;5115292;28;20031;-73
2022/11/13 10:51:35;;;;;;;40.92;28.30;;;8.80;99.90;;;;;;5115429;28;20035;-74
2022/11/13 10:54:20;;;;;;;38.15;26.88;;;9.00;99.90;;;;;;5115550;28;20068;-75
2022/11/13 10:56:59;;;;;;;40.45;25.50;;;9.30;99.90;;;;;;5115614;28;20027;-74
2022/11/13 10:59:26;;;;;;;40.38;25.15;;;9.50;99.90;;;;;;5114644;28;20494;-76
2022/11/13 11:01:51;;;;;;;39.70;25.48;;;9.70;99.90;;;;;;5115425;28;20131;-75
2022/11/13 11:04:23;;;;;;;34.60;23.83;;;9.90;99.90;;;;;;5114899;28;20108;-75
2022/11/13 11:06:49;;;;;;;;;;;10.10;99.90;;;;;;5115660;28;20039;-75
2022/11/13 11:09:20;;;;;;;32.20;21.25;;;10.30;99.90;;;;;;5114351;27;19915;-74
2022/11/13 11:12:14;;;;;;;30.10;22.08;;;10.50;99.90;;;;;;5115227;28;20023;-76
2022/11/13 11:15:03;;;;;;;32.38;20.92;;;10.60;99.90;;;;;;5115183;28;20066;-75
2022/11/13 11:17:48;;;;;;;26.67;19.10;;;10.90;99.90;;;;;;5115120;28;20432;-75
2022/11/13 11:20:24;;;;;;;29.00;19.23;;;11.00;99.90;;;;;;5114611;28;20028;-75
2022/11/13 11:22:56;;;;;;;27.50;19.10;;;11.20;99.90;;;;;;5115004;28;20015;-75
2022/11/13 11:25:22;;;;;;;25.52;18.38;;;11.30;99.90;;;;;;5115114;28;20035;-75
2022/11/13 11:27:55;;;;;;;26.27;18.27;;;11.40;99.90;;;;;;5114611;28;20028;-75
2022/11/13 11:30:31;;;;;;;26.85;17.95;;;11.60;99.90;;;;;;5114977;28;20028;-74
2022/11/13 11:33:14;;;;;;;24.88;16.90;;;11.70;99.90;;;;;;5113886;28;20030;-74
2022/11/13 11:35:55;;;;;;;23.35;17.23;;;11.90;99.90;;;;;;5114229;28;20043;-75
2022/11/13 11:38:28;;;;;;;23.83;17.30;;;12.00;99.90;;;;;;5113987;28;20042;-76
2022/11/13 11:41:16;;;;;;;20.92;16.63;;;12.10;99.90;;;;;;5114862;28;20032;-75
2022/11/13 11:44:00;;;;;;;23.88;16.40;;;12.20;99.90;;;;;;5114311;28;20031;-74
2022/11/13 11:46:28;;;;;;;24.40;17.83;;;12.30;99.90;;;;;;5114806;28;20027;-76
2022/11/13 11:48:58;;;;;;;23.88;17.38;;;12.40;99.90;;;;;;5114128;28;20038;-75
2022/11/13 11:51:30;;;;;;;23.58;17.25;;;12.50;99.90;;;;;;5114435;28;20026;-75
2022/11/13 11:54:13;;;;;;;24.23;17.13;;;12.60;99.90;;;;;;5114452;28;20034;-76
2022/11/13 11:56:52;;;;;;;24.63;17.35;;;12.70;99.90;;;;;;5114725;28;20038;-76
2022/11/13 11:59:24;;;;;;;22.25;17.05;;;12.70;99.90;;;;;;5114027;28;20035;-75
2022/11/13 12:02:05;;;;;;;24.75;17.55;;;12.70;99.90;;;;;;5114087;28;20032;-76
2022/11/13 12:04:51;;;;;;;25.45;17.52;;;12.70;99.90;;;;;;5112882;28;20028;-75
2022/11/13 12:07:54;;;;;;;24.75;17.25;;;12.80;99.90;;;;;;5113854;28;20028;-75
2022/11/13 12:10:47;;;;;;;24.58;17.35;;;12.70;99.90;;;;;;5061505;28;20036;-76
2022/11/13 12:13:18;;;;;;;24.85;17.65;;;12.70;99.90;;;;;;5091286;28;20028;-75
2022/11/13 12:15:50;;;;;;;24.42;17.77;;;12.60;99.90;;;;;;5093788;28;20085;-75
2022/11/13 12:18:47;;;;;;;26.80;17.90;;;12.50;99.90;;;;;;5092973;28;20035;-74
2022/11/13 12:21:34;;;;;;;27.77;17.52;;;12.50;99.90;;;;;;5093311;28;20073;-74
2022/11/13 12:24:17;;;;;;;24.60;17.88;;;12.40;99.90;;;;;;5093073;28;20060;-76
2022/11/13 12:26:49;;;;;;;24.98;17.55;;;12.40;99.90;;;;;;5093204;28;20484;-75
2022/11/13 12:29:48;;;;;;;25.17;18.15;;;12.40;99.90;;;;;;5092805;28;20028;-75
2022/11/13 12:32:48;;;;;;;26.00;18.15;;;12.40;99.90;;;;;;5092733;28;20103;-74
2022/11/13 12:35:25;;;;;;;25.45;18.73;;;12.30;99.90;;;;;;5092774;28;20069;-75
2022/11/13 12:38:00;;;;;;;26.05;18.73;;;12.20;99.90;;;;;;5093019;28;20024;-75
2022/11/13 12:40:49;;;;;;;29.35;19.30;;;12.20;99.90;;;;;;5092934;28;20028;-75
2022/11/13 12:43:41;;;;;;;25.77;18.45;;;12.00;99.90;;;;;;5092418;28;20496;-74